IBE6971 GOBD-GCLP
Flight info
| Callsign | IBE6971 |
|---|---|
| Flight time | 1h 57m |
| Altitude | 37000 |
| Route | LIMAX1H LIMAX UB600 PE DCT MAURI L660 DKH M660 ROTUM/N0446F360 DCT REMGI |
| Aircraft | A320/M-SDE3FGHIRWY/LB1 |
Departure
| Time | 2026-05-05 18:10 |
|---|---|
| Airport | Blaise Diagne International Airport (GOBD) |
Arrival
| Time | 2026-05-05 20:08 |
|---|---|
| Airport | Gran Canaria Airport (GCLP) |
| Time | Latitude | Longitude | Altitude | Speed | Heading |
|---|---|---|---|---|---|
| 2026-05-05 17:46 | 14.67128 | -17.06852 | 298 ft | 0 kts | 122° |
| 2026-05-05 18:03 | 14.67138 | -17.06867 | 293 ft | 4 kts | 122° |
| 2026-05-05 18:03 | 14.67152 | -17.06890 | 292 ft | 3 kts | 122° |
| 2026-05-05 18:03 | 14.67163 | -17.06909 | 292 ft | 4 kts | 120° |
| 2026-05-05 18:03 | 14.67177 | -17.06934 | 294 ft | 4 kts | 115° |
| 2026-05-05 18:04 | 14.67187 | -17.06959 | 297 ft | 4 kts | 103° |
| 2026-05-05 18:04 | 14.67189 | -17.06978 | 293 ft | 0 kts | 89° |
| 2026-05-05 18:05 | 14.67189 | -17.06977 | 292 ft | 0 kts | 89° |
| 2026-05-05 18:06 | 14.67195 | -17.06963 | 293 ft | 4 kts | 58° |
| 2026-05-05 18:06 | 14.67219 | -17.06960 | 292 ft | 7 kts | 348° |
| 2026-05-05 18:06 | 14.67319 | -17.06976 | 292 ft | 15 kts | 355° |
| 2026-05-05 18:06 | 14.67440 | -17.06976 | 293 ft | 19 kts | 359° |
| 2026-05-05 18:07 | 14.67532 | -17.07044 | 292 ft | 18 kts | 279° |
| 2026-05-05 18:07 | 14.67617 | -17.07097 | 292 ft | 15 kts | 14° |
| 2026-05-05 18:07 | 14.67734 | -17.07096 | 288 ft | 19 kts | 358° |
| 2026-05-05 18:07 | 14.67886 | -17.07099 | 284 ft | 24 kts | 359° |
| 2026-05-05 18:08 | 14.68068 | -17.07101 | 281 ft | 28 kts | 0° |
| 2026-05-05 18:08 | 14.68245 | -17.07101 | 275 ft | 23 kts | 359° |
| 2026-05-05 18:08 | 14.68403 | -17.07104 | 269 ft | 22 kts | 359° |
| 2026-05-05 18:08 | 14.68556 | -17.07104 | 264 ft | 22 kts | 0° |
| 2026-05-05 18:09 | 14.68665 | -17.07134 | 260 ft | 14 kts | 290° |
| 2026-05-05 18:09 | 14.68674 | -17.07236 | 261 ft | 15 kts | 267° |
| 2026-05-05 18:09 | 14.68607 | -17.07300 | 264 ft | 17 kts | 175° |
| 2026-05-05 18:09 | 14.68340 | -17.07298 | 274 ft | 72 kts | 179° |
| 2026-05-05 18:10 | 14.67623 | -17.07287 | 288 ft | 132 kts | 180° |
| 2026-05-05 18:10 | 14.66528 | -17.07279 | 397 ft | 169 kts | 181° |
| 2026-05-05 18:10 | 14.65373 | -17.07268 | 1056 ft | 169 kts | 181° |
| 2026-05-05 18:10 | 14.64196 | -17.07238 | 1736 ft | 169 kts | 180° |
| 2026-05-05 18:11 | 14.62997 | -17.07213 | 2204 ft | 182 kts | 181° |
| 2026-05-05 18:11 | 14.61657 | -17.07205 | 2426 ft | 204 kts | 181° |
| 2026-05-05 18:11 | 14.60157 | -17.07204 | 2619 ft | 228 kts | 181° |
| 2026-05-05 18:11 | 14.58487 | -17.07200 | 2903 ft | 252 kts | 181° |
| 2026-05-05 18:12 | 14.56661 | -17.07192 | 3301 ft | 270 kts | 181° |
| 2026-05-05 18:12 | 14.54762 | -17.07180 | 4003 ft | 275 kts | 180° |
| 2026-05-05 18:12 | 14.52851 | -17.06936 | 4760 ft | 281 kts | 162° |
| 2026-05-05 18:12 | 14.51146 | -17.05952 | 5498 ft | 285 kts | 138° |
| 2026-05-05 18:13 | 14.49970 | -17.04313 | 6232 ft | 288 kts | 112° |
| 2026-05-05 18:13 | 14.49574 | -17.02296 | 6934 ft | 291 kts | 87° |
| 2026-05-05 18:13 | 14.50047 | -17.00281 | 7634 ft | 292 kts | 62° |
| 2026-05-05 18:13 | 14.51306 | -16.98648 | 8303 ft | 294 kts | 37° |
| 2026-05-05 18:14 | 14.53126 | -16.97719 | 8952 ft | 295 kts | 12° |
| 2026-05-05 18:14 | 14.55169 | -16.97403 | 9597 ft | 298 kts | 7° |
| 2026-05-05 18:14 | 14.57239 | -16.97135 | 10236 ft | 303 kts | 7° |
| 2026-05-05 18:14 | 14.59401 | -16.96858 | 10414 ft | 324 kts | 7° |
| 2026-05-05 18:15 | 14.61716 | -16.96561 | 10552 ft | 346 kts | 7° |
| 2026-05-05 18:15 | 14.64170 | -16.96244 | 10669 ft | 365 kts | 7° |
| 2026-05-05 18:15 | 14.66736 | -16.95909 | 11010 ft | 377 kts | 7° |
| 2026-05-05 18:15 | 14.69349 | -16.95565 | 11552 ft | 381 kts | 7° |
| 2026-05-05 18:16 | 14.71996 | -16.95213 | 12141 ft | 384 kts | 8° |
| 2026-05-05 18:16 | 14.74656 | -16.94862 | 12746 ft | 387 kts | 8° |
| 2026-05-05 18:16 | 14.77340 | -16.94511 | 13338 ft | 390 kts | 8° |
| 2026-05-05 18:16 | 14.80049 | -16.94158 | 13899 ft | 394 kts | 7° |
| 2026-05-05 18:17 | 14.82783 | -16.93801 | 14459 ft | 397 kts | 7° |
| 2026-05-05 18:17 | 14.85534 | -16.93441 | 14995 ft | 401 kts | 7° |
| 2026-05-05 18:17 | 14.88312 | -16.93078 | 15524 ft | 404 kts | 7° |
| 2026-05-05 18:17 | 14.91075 | -16.92715 | 16034 ft | 407 kts | 7° |
| 2026-05-05 18:18 | 14.93894 | -16.92344 | 16543 ft | 410 kts | 7° |
| 2026-05-05 18:18 | 14.96740 | -16.91967 | 17051 ft | 414 kts | 7° |
| 2026-05-05 18:18 | 14.99600 | -16.91587 | 17552 ft | 417 kts | 7° |
| 2026-05-05 18:18 | 15.02489 | -16.91203 | 18046 ft | 420 kts | 7° |
| 2026-05-05 18:19 | 15.05399 | -16.90819 | 18522 ft | 423 kts | 7° |
| 2026-05-05 18:19 | 15.08330 | -16.90436 | 18984 ft | 426 kts | 7° |
| 2026-05-05 18:19 | 15.11281 | -16.90051 | 19424 ft | 429 kts | 7° |
| 2026-05-05 18:19 | 15.14257 | -16.89658 | 19850 ft | 432 kts | 7° |
| 2026-05-05 18:20 | 15.17251 | -16.89263 | 20266 ft | 435 kts | 7° |
| 2026-05-05 18:20 | 15.19242 | -16.89000 | 20532 ft | 437 kts | 7° |
| 2026-05-05 18:20 | 15.23293 | -16.88462 | 21053 ft | 440 kts | 7° |
| 2026-05-05 18:20 | 15.26341 | -16.88056 | 21427 ft | 443 kts | 6° |
| 2026-05-05 18:21 | 15.29415 | -16.87789 | 21785 ft | 445 kts | 359° |
| 2026-05-05 18:21 | 15.32504 | -16.88030 | 22133 ft | 446 kts | 349° |
| 2026-05-05 18:21 | 15.35522 | -16.88792 | 22465 ft | 447 kts | 341° |
| 2026-05-05 18:21 | 15.38496 | -16.89755 | 22803 ft | 449 kts | 341° |
| 2026-05-05 18:22 | 15.40475 | -16.90392 | 23010 ft | 450 kts | 341° |
| 2026-05-05 18:22 | 15.43476 | -16.91353 | 23323 ft | 452 kts | 341° |
| 2026-05-05 18:22 | 15.46487 | -16.92309 | 23619 ft | 454 kts | 341° |
| 2026-05-05 18:22 | 15.49520 | -16.93271 | 23913 ft | 456 kts | 341° |
| 2026-05-05 18:23 | 15.52560 | -16.94237 | 24193 ft | 458 kts | 341° |
| 2026-05-05 18:23 | 15.55616 | -16.95208 | 24471 ft | 460 kts | 341° |
| 2026-05-05 18:23 | 15.58681 | -16.96185 | 24752 ft | 461 kts | 341° |
| 2026-05-05 18:23 | 15.61755 | -16.97168 | 25021 ft | 463 kts | 341° |
| 2026-05-05 18:24 | 15.64838 | -16.98154 | 25289 ft | 465 kts | 341° |
| 2026-05-05 18:24 | 15.67930 | -16.99142 | 25548 ft | 466 kts | 341° |
| 2026-05-05 18:24 | 15.71034 | -17.00134 | 25801 ft | 467 kts | 341° |
| 2026-05-05 18:24 | 15.74145 | -17.01130 | 26035 ft | 469 kts | 341° |
| 2026-05-05 18:25 | 15.77267 | -17.02128 | 26280 ft | 470 kts | 341° |
| 2026-05-05 18:25 | 15.79342 | -17.02793 | 26433 ft | 472 kts | 341° |
| 2026-05-05 18:25 | 15.83541 | -17.04138 | 26738 ft | 473 kts | 341° |
| 2026-05-05 18:25 | 15.86644 | -17.05133 | 26947 ft | 474 kts | 341° |
| 2026-05-05 18:26 | 15.89802 | -17.06144 | 27149 ft | 475 kts | 340° |
| 2026-05-05 18:26 | 15.92966 | -17.07157 | 27345 ft | 476 kts | 340° |
| 2026-05-05 18:26 | 15.96134 | -17.08173 | 27529 ft | 477 kts | 340° |
| 2026-05-05 18:26 | 15.99311 | -17.09191 | 27709 ft | 478 kts | 340° |
| 2026-05-05 18:27 | 16.02488 | -17.10214 | 27972 ft | 478 kts | 340° |
| 2026-05-05 18:27 | 16.05656 | -17.11236 | 28238 ft | 477 kts | 340° |
| 2026-05-05 18:27 | 16.08824 | -17.12259 | 28493 ft | 476 kts | 340° |
| 2026-05-05 18:27 | 16.11988 | -17.13278 | 28761 ft | 475 kts | 340° |
| 2026-05-05 18:28 | 16.18296 | -17.15307 | 29288 ft | 474 kts | 340° |
| 2026-05-05 18:28 | 16.21443 | -17.16315 | 29553 ft | 473 kts | 340° |
| 2026-05-05 18:28 | 16.24585 | -17.17321 | 29818 ft | 472 kts | 340° |
| 2026-05-05 18:29 | 16.27726 | -17.18329 | 30082 ft | 471 kts | 340° |
| 2026-05-05 18:29 | 16.30857 | -17.19335 | 30339 ft | 471 kts | 340° |
| 2026-05-05 18:29 | 16.33990 | -17.20343 | 30586 ft | 471 kts | 339° |
| 2026-05-05 18:29 | 16.37117 | -17.21349 | 30830 ft | 471 kts | 339° |
| 2026-05-05 18:30 | 16.40245 | -17.22359 | 31083 ft | 470 kts | 339° |
| 2026-05-05 18:30 | 16.43375 | -17.23365 | 31303 ft | 471 kts | 339° |
| 2026-05-05 18:30 | 16.46499 | -17.24369 | 31552 ft | 470 kts | 339° |
| 2026-05-05 18:30 | 16.49626 | -17.25376 | 31797 ft | 470 kts | 339° |
| 2026-05-05 18:31 | 16.52751 | -17.26385 | 32031 ft | 470 kts | 339° |
| 2026-05-05 18:31 | 16.55874 | -17.27394 | 32265 ft | 470 kts | 339° |
| 2026-05-05 18:31 | 16.58996 | -17.28403 | 32500 ft | 470 kts | 339° |
| 2026-05-05 18:31 | 16.62120 | -17.29411 | 32732 ft | 470 kts | 339° |
| 2026-05-05 18:32 | 16.65241 | -17.30416 | 32963 ft | 470 kts | 339° |
| 2026-05-05 18:32 | 16.68366 | -17.31420 | 33197 ft | 469 kts | 339° |
| 2026-05-05 18:32 | 16.71482 | -17.32422 | 33428 ft | 470 kts | 340° |
| 2026-05-05 18:32 | 16.74694 | -17.33137 | 33650 ft | 474 kts | 349° |
| 2026-05-05 18:33 | 16.77960 | -17.33318 | 33867 ft | 479 kts | 358° |
| 2026-05-05 18:33 | 16.81293 | -17.33104 | 34079 ft | 480 kts | 0° |
| 2026-05-05 18:33 | 16.84628 | -17.32864 | 34299 ft | 480 kts | 0° |
| 2026-05-05 18:33 | 16.87958 | -17.32621 | 34538 ft | 479 kts | 0° |
| 2026-05-05 18:34 | 16.91287 | -17.32380 | 34761 ft | 479 kts | 0° |
| 2026-05-05 18:34 | 16.94607 | -17.32141 | 34974 ft | 478 kts | 0° |
| 2026-05-05 18:34 | 16.97925 | -17.31904 | 35187 ft | 478 kts | 0° |
| 2026-05-05 18:34 | 17.01238 | -17.31667 | 35400 ft | 477 kts | 360° |
| 2026-05-05 18:35 | 17.04544 | -17.31434 | 35592 ft | 476 kts | 360° |
| 2026-05-05 18:35 | 17.07849 | -17.31200 | 35789 ft | 476 kts | 360° |
| 2026-05-05 18:35 | 17.11147 | -17.30968 | 35988 ft | 475 kts | 360° |
| 2026-05-05 18:35 | 17.14444 | -17.30738 | 36179 ft | 474 kts | 360° |
| 2026-05-05 18:36 | 17.17731 | -17.30508 | 36346 ft | 473 kts | 360° |
| 2026-05-05 18:36 | 17.21017 | -17.30279 | 36497 ft | 473 kts | 360° |
| 2026-05-05 18:36 | 17.24300 | -17.30048 | 36648 ft | 473 kts | 360° |
| 2026-05-05 18:36 | 17.27574 | -17.29818 | 36845 ft | 470 kts | 359° |
| 2026-05-05 18:37 | 17.34087 | -17.29356 | 36910 ft | 468 kts | 360° |
| 2026-05-05 18:37 | 17.40582 | -17.28888 | 36909 ft | 468 kts | 359° |
| 2026-05-05 18:38 | 17.47070 | -17.28426 | 36900 ft | 467 kts | 359° |
| 2026-05-05 18:38 | 17.53566 | -17.27971 | 36904 ft | 468 kts | 359° |
| 2026-05-05 18:39 | 17.60065 | -17.27512 | 36910 ft | 468 kts | 359° |
| 2026-05-05 18:39 | 17.66567 | -17.27047 | 36902 ft | 468 kts | 359° |
| 2026-05-05 18:40 | 17.73073 | -17.26579 | 36914 ft | 469 kts | 359° |
| 2026-05-05 18:40 | 17.79537 | -17.26127 | 36903 ft | 469 kts | 359° |
| 2026-05-05 18:41 | 17.86045 | -17.25662 | 36920 ft | 469 kts | 360° |
| 2026-05-05 18:41 | 17.92549 | -17.25191 | 36916 ft | 469 kts | 359° |
| 2026-05-05 18:42 | 17.99063 | -17.24720 | 36910 ft | 469 kts | 359° |
| 2026-05-05 18:42 | 18.05576 | -17.24253 | 36920 ft | 469 kts | 359° |
| 2026-05-05 18:43 | 18.12088 | -17.23785 | 36908 ft | 469 kts | 359° |
| 2026-05-05 18:43 | 18.18605 | -17.23325 | 36921 ft | 469 kts | 359° |
| 2026-05-05 18:44 | 18.25128 | -17.22862 | 36906 ft | 470 kts | 359° |
| 2026-05-05 18:44 | 18.31648 | -17.22388 | 36911 ft | 470 kts | 359° |
| 2026-05-05 18:45 | 18.38165 | -17.21917 | 36908 ft | 469 kts | 359° |
| 2026-05-05 18:45 | 18.44685 | -17.21446 | 36911 ft | 469 kts | 359° |
| 2026-05-05 18:46 | 18.51206 | -17.20979 | 36909 ft | 470 kts | 359° |
| 2026-05-05 18:46 | 18.57732 | -17.20515 | 36912 ft | 470 kts | 359° |
| 2026-05-05 18:47 | 18.64260 | -17.20049 | 36915 ft | 470 kts | 359° |
| 2026-05-05 18:47 | 18.70741 | -17.19587 | 36915 ft | 470 kts | 359° |
| 2026-05-05 18:48 | 18.77269 | -17.19115 | 36918 ft | 471 kts | 359° |
| 2026-05-05 18:48 | 18.83807 | -17.18641 | 36923 ft | 471 kts | 359° |
| 2026-05-05 18:49 | 18.90344 | -17.18172 | 36924 ft | 471 kts | 359° |
| 2026-05-05 18:49 | 18.96883 | -17.17709 | 36927 ft | 471 kts | 359° |
| 2026-05-05 18:50 | 19.03418 | -17.17248 | 36910 ft | 471 kts | 359° |
| 2026-05-05 18:50 | 19.09957 | -17.16783 | 36915 ft | 471 kts | 359° |
| 2026-05-05 18:51 | 19.16489 | -17.16305 | 36905 ft | 470 kts | 359° |
| 2026-05-05 18:51 | 19.23017 | -17.15826 | 36917 ft | 470 kts | 359° |
| 2026-05-05 18:52 | 19.29554 | -17.15356 | 36908 ft | 471 kts | 359° |
| 2026-05-05 18:52 | 19.36094 | -17.14883 | 36919 ft | 471 kts | 359° |
| 2026-05-05 18:53 | 19.42635 | -17.14409 | 36922 ft | 471 kts | 359° |
| 2026-05-05 18:53 | 19.49179 | -17.13923 | 36928 ft | 472 kts | 359° |
| 2026-05-05 18:54 | 19.55732 | -17.13446 | 36932 ft | 472 kts | 359° |
| 2026-05-05 18:54 | 19.62292 | -17.12972 | 36936 ft | 472 kts | 359° |
| 2026-05-05 18:55 | 19.68847 | -17.12492 | 36937 ft | 472 kts | 359° |
| 2026-05-05 18:55 | 19.75402 | -17.12011 | 36936 ft | 472 kts | 359° |
| 2026-05-05 18:56 | 19.81915 | -17.11535 | 36932 ft | 472 kts | 359° |
| 2026-05-05 18:56 | 19.88468 | -17.11058 | 36934 ft | 472 kts | 359° |
| 2026-05-05 18:57 | 19.95021 | -17.10576 | 36933 ft | 472 kts | 359° |
| 2026-05-05 18:57 | 20.01573 | -17.10097 | 36935 ft | 472 kts | 359° |
| 2026-05-05 18:58 | 20.08135 | -17.09620 | 36933 ft | 473 kts | 359° |
| 2026-05-05 18:58 | 20.14702 | -17.09136 | 36934 ft | 473 kts | 359° |
| 2026-05-05 18:59 | 20.21281 | -17.08648 | 36935 ft | 474 kts | 359° |
| 2026-05-05 18:59 | 20.27854 | -17.08162 | 36936 ft | 474 kts | 359° |
| 2026-05-05 19:00 | 20.34429 | -17.07684 | 36936 ft | 473 kts | 359° |
| 2026-05-05 19:00 | 20.41006 | -17.07202 | 36935 ft | 474 kts | 359° |
| 2026-05-05 19:01 | 20.47581 | -17.06717 | 36935 ft | 473 kts | 359° |
| 2026-05-05 19:01 | 20.54158 | -17.06236 | 36935 ft | 474 kts | 359° |
| 2026-05-05 19:02 | 20.60731 | -17.05758 | 36937 ft | 474 kts | 359° |
| 2026-05-05 19:02 | 20.67319 | -17.05273 | 36936 ft | 474 kts | 359° |
| 2026-05-05 19:03 | 20.73908 | -17.04787 | 36934 ft | 475 kts | 359° |
| 2026-05-05 19:03 | 20.80497 | -17.04300 | 36937 ft | 475 kts | 359° |
| 2026-05-05 19:04 | 20.87086 | -17.03805 | 36940 ft | 474 kts | 359° |
| 2026-05-05 19:04 | 20.93629 | -17.02659 | 36937 ft | 483 kts | 14° |
| 2026-05-05 19:05 | 20.99977 | -17.00235 | 36935 ft | 484 kts | 15° |
| 2026-05-05 19:05 | 21.06319 | -16.97780 | 36935 ft | 485 kts | 15° |
| 2026-05-05 19:06 | 21.12671 | -16.95334 | 36938 ft | 485 kts | 15° |
| 2026-05-05 19:06 | 21.18988 | -16.92911 | 36938 ft | 485 kts | 15° |
| 2026-05-05 19:07 | 21.24310 | -16.90870 | 36937 ft | 485 kts | 15° |
| 2026-05-05 19:07 | 21.31688 | -16.88023 | 36933 ft | 485 kts | 15° |
| 2026-05-05 19:08 | 21.38029 | -16.85546 | 36930 ft | 485 kts | 16° |
| 2026-05-05 19:08 | 21.44354 | -16.83004 | 36928 ft | 485 kts | 17° |
| 2026-05-05 19:09 | 21.50680 | -16.80465 | 36932 ft | 485 kts | 17° |
| 2026-05-05 19:09 | 21.57012 | -16.77910 | 36927 ft | 486 kts | 17° |
| 2026-05-05 19:10 | 21.63350 | -16.75363 | 36935 ft | 486 kts | 16° |
| 2026-05-05 19:10 | 21.69692 | -16.72825 | 36940 ft | 486 kts | 16° |
| 2026-05-05 19:11 | 21.76027 | -16.70287 | 36941 ft | 486 kts | 16° |
| 2026-05-05 19:11 | 21.82355 | -16.67734 | 36940 ft | 486 kts | 16° |
| 2026-05-05 19:12 | 21.87614 | -16.65623 | 36938 ft | 485 kts | 16° |
| 2026-05-05 19:12 | 21.93956 | -16.63148 | 36936 ft | 485 kts | 15° |
| 2026-05-05 19:13 | 22.00308 | -16.60704 | 36932 ft | 484 kts | 15° |
| 2026-05-05 19:13 | 22.06658 | -16.58248 | 36933 ft | 485 kts | 15° |
| 2026-05-05 19:14 | 22.12998 | -16.55770 | 36933 ft | 485 kts | 15° |
| 2026-05-05 19:14 | 22.19340 | -16.53292 | 36933 ft | 485 kts | 15° |
| 2026-05-05 19:15 | 22.25690 | -16.50820 | 36933 ft | 485 kts | 15° |
| 2026-05-05 19:15 | 22.32031 | -16.48349 | 36935 ft | 485 kts | 15° |
| 2026-05-05 19:16 | 22.38371 | -16.45874 | 36935 ft | 484 kts | 15° |
| 2026-05-05 19:16 | 22.44706 | -16.43388 | 36936 ft | 484 kts | 15° |
| 2026-05-05 19:17 | 22.51040 | -16.40901 | 36936 ft | 484 kts | 15° |
| 2026-05-05 19:17 | 22.57369 | -16.38405 | 36936 ft | 484 kts | 15° |
| 2026-05-05 19:18 | 22.63693 | -16.35913 | 36936 ft | 484 kts | 15° |
| 2026-05-05 19:18 | 22.70026 | -16.33424 | 36933 ft | 484 kts | 15° |
| 2026-05-05 19:19 | 22.76347 | -16.30927 | 36934 ft | 484 kts | 15° |
| 2026-05-05 19:19 | 22.82639 | -16.28449 | 36933 ft | 484 kts | 15° |
| 2026-05-05 19:20 | 22.88963 | -16.25963 | 36929 ft | 483 kts | 15° |
| 2026-05-05 19:20 | 22.95285 | -16.23467 | 36927 ft | 483 kts | 15° |
| 2026-05-05 19:21 | 23.01603 | -16.20963 | 36927 ft | 484 kts | 15° |
| 2026-05-05 19:21 | 23.07926 | -16.18465 | 36924 ft | 483 kts | 15° |
| 2026-05-05 19:22 | 23.14246 | -16.15964 | 36915 ft | 484 kts | 15° |
| 2026-05-05 19:22 | 23.20570 | -16.13457 | 36928 ft | 484 kts | 15° |
| 2026-05-05 19:23 | 23.26895 | -16.10943 | 36929 ft | 484 kts | 15° |
| 2026-05-05 19:23 | 23.33216 | -16.08431 | 36930 ft | 484 kts | 15° |
| 2026-05-05 19:24 | 23.39539 | -16.05920 | 36930 ft | 484 kts | 15° |
| 2026-05-05 19:24 | 23.45864 | -16.03405 | 36929 ft | 484 kts | 15° |
| 2026-05-05 19:25 | 23.52184 | -16.00886 | 36929 ft | 484 kts | 15° |
| 2026-05-05 19:25 | 23.58503 | -15.98359 | 36929 ft | 483 kts | 15° |
| 2026-05-05 19:26 | 23.64811 | -15.95844 | 36929 ft | 483 kts | 15° |
| 2026-05-05 19:26 | 23.71126 | -15.93327 | 36931 ft | 483 kts | 15° |
| 2026-05-05 19:27 | 23.77582 | -15.91657 | 36930 ft | 472 kts | 359° |
| 2026-05-05 19:27 | 23.84118 | -15.90982 | 36924 ft | 472 kts | 360° |
| 2026-05-05 19:28 | 23.90655 | -15.90280 | 36928 ft | 472 kts | 0° |
| 2026-05-05 19:28 | 23.97194 | -15.89584 | 36928 ft | 472 kts | 360° |
| 2026-05-05 19:29 | 24.03688 | -15.88903 | 36928 ft | 472 kts | 360° |
| 2026-05-05 19:29 | 24.10227 | -15.88212 | 36924 ft | 472 kts | 0° |
| 2026-05-05 19:30 | 24.16764 | -15.87517 | 36928 ft | 472 kts | 0° |
| 2026-05-05 19:30 | 24.23308 | -15.86823 | 36915 ft | 472 kts | 360° |
| 2026-05-05 19:31 | 24.29849 | -15.86137 | 36930 ft | 472 kts | 360° |
| 2026-05-05 19:31 | 24.36397 | -15.85440 | 36932 ft | 472 kts | 0° |
| 2026-05-05 19:32 | 24.42940 | -15.84740 | 36931 ft | 472 kts | 360° |
| 2026-05-05 19:32 | 24.49481 | -15.84050 | 36933 ft | 472 kts | 360° |
| 2026-05-05 19:33 | 24.56021 | -15.83357 | 36941 ft | 472 kts | 0° |
| 2026-05-05 19:33 | 24.62557 | -15.82660 | 36945 ft | 472 kts | 360° |
| 2026-05-05 19:34 | 24.69096 | -15.81959 | 36945 ft | 472 kts | 0° |
| 2026-05-05 19:35 | 24.78906 | -15.80915 | 36943 ft | 472 kts | 0° |
| 2026-05-05 19:35 | 24.85450 | -15.80220 | 36951 ft | 472 kts | 0° |
| 2026-05-05 19:36 | 24.91994 | -15.79517 | 36956 ft | 472 kts | 0° |
| 2026-05-05 19:36 | 24.98528 | -15.78812 | 36948 ft | 472 kts | 0° |
| 2026-05-05 19:37 | 25.05018 | -15.77436 | 36948 ft | 476 kts | 7° |
| 2026-05-05 19:37 | 25.11497 | -15.75865 | 36954 ft | 476 kts | 7° |
| 2026-05-05 19:38 | 25.17975 | -15.74310 | 36960 ft | 477 kts | 7° |
| 2026-05-05 19:38 | 25.24452 | -15.72730 | 36964 ft | 477 kts | 7° |
| 2026-05-05 19:39 | 25.30934 | -15.71136 | 36970 ft | 477 kts | 7° |
| 2026-05-05 19:39 | 25.37414 | -15.69556 | 36974 ft | 477 kts | 7° |
| 2026-05-05 19:40 | 25.43892 | -15.67972 | 36980 ft | 477 kts | 7° |
| 2026-05-05 19:40 | 25.50406 | -15.67275 | 36980 ft | 469 kts | 357° |
| 2026-05-05 19:41 | 25.56922 | -15.66892 | 36981 ft | 469 kts | 357° |
| 2026-05-05 19:41 | 25.63438 | -15.66513 | 36985 ft | 469 kts | 357° |
| 2026-05-05 19:42 | 25.69954 | -15.66138 | 36987 ft | 468 kts | 357° |
| 2026-05-05 19:42 | 25.76464 | -15.65769 | 36989 ft | 469 kts | 357° |
| 2026-05-05 19:43 | 25.82979 | -15.65392 | 36993 ft | 469 kts | 357° |
| 2026-05-05 19:43 | 25.89489 | -15.65016 | 36998 ft | 469 kts | 357° |
| 2026-05-05 19:44 | 25.95967 | -15.64632 | 37000 ft | 469 kts | 358° |
| 2026-05-05 19:44 | 26.02479 | -15.64250 | 36999 ft | 469 kts | 358° |
| 2026-05-05 19:45 | 26.09000 | -15.63882 | 37003 ft | 469 kts | 357° |
| 2026-05-05 19:45 | 26.12263 | -15.63700 | 36765 ft | 469 kts | 357° |
| 2026-05-05 19:45 | 26.15521 | -15.63515 | 36513 ft | 469 kts | 358° |
| 2026-05-05 19:45 | 26.18775 | -15.63327 | 36262 ft | 468 kts | 358° |
| 2026-05-05 19:46 | 26.22040 | -15.63139 | 36013 ft | 471 kts | 358° |
| 2026-05-05 19:46 | 26.25330 | -15.62946 | 35757 ft | 475 kts | 358° |
| 2026-05-05 19:46 | 26.28639 | -15.62747 | 35508 ft | 477 kts | 358° |
| 2026-05-05 19:46 | 26.31961 | -15.62547 | 34743 ft | 481 kts | 358° |
| 2026-05-05 19:47 | 26.35312 | -15.62349 | 33792 ft | 484 kts | 359° |
| 2026-05-05 19:47 | 26.38686 | -15.62155 | 32804 ft | 486 kts | 359° |
| 2026-05-05 19:47 | 26.42073 | -15.61964 | 31765 ft | 489 kts | 359° |
| 2026-05-05 19:47 | 26.45484 | -15.61770 | 30676 ft | 492 kts | 359° |
| 2026-05-05 19:48 | 26.48913 | -15.61572 | 29545 ft | 495 kts | 359° |
| 2026-05-05 19:48 | 26.52358 | -15.61374 | 28322 ft | 498 kts | 359° |
| 2026-05-05 19:48 | 26.55832 | -15.61167 | 27073 ft | 500 kts | 360° |
| 2026-05-05 19:48 | 26.59269 | -15.60958 | 25765 ft | 503 kts | 360° |
| 2026-05-05 19:49 | 26.62764 | -15.60745 | 24602 ft | 502 kts | 360° |
| 2026-05-05 19:49 | 26.65110 | -15.60604 | 24027 ft | 497 kts | 360° |
| 2026-05-05 19:49 | 26.69649 | -15.60336 | 22814 ft | 490 kts | 360° |
| 2026-05-05 19:49 | 26.73033 | -15.60138 | 21948 ft | 485 kts | 360° |
| 2026-05-05 19:50 | 26.76379 | -15.59943 | 21122 ft | 479 kts | 360° |
| 2026-05-05 19:50 | 26.79692 | -15.59749 | 20322 ft | 474 kts | 360° |
| 2026-05-05 19:50 | 26.82970 | -15.59557 | 19533 ft | 469 kts | 360° |
| 2026-05-05 19:50 | 26.86217 | -15.59364 | 18771 ft | 464 kts | 360° |
| 2026-05-05 19:51 | 26.89423 | -15.59173 | 18017 ft | 460 kts | 360° |
| 2026-05-05 19:51 | 26.92600 | -15.58986 | 17323 ft | 454 kts | 360° |
| 2026-05-05 19:51 | 26.95736 | -15.58802 | 16660 ft | 448 kts | 360° |
| 2026-05-05 19:51 | 26.98833 | -15.58621 | 16022 ft | 443 kts | 360° |
| 2026-05-05 19:52 | 27.01888 | -15.58439 | 15414 ft | 437 kts | 0° |
| 2026-05-05 19:52 | 27.04908 | -15.58257 | 14814 ft | 431 kts | 0° |
| 2026-05-05 19:52 | 27.07884 | -15.58080 | 14225 ft | 427 kts | 0° |
| 2026-05-05 19:52 | 27.10841 | -15.57912 | 13593 ft | 423 kts | 0° |
| 2026-05-05 19:53 | 27.13761 | -15.57744 | 12986 ft | 417 kts | 0° |
| 2026-05-05 19:53 | 27.16650 | -15.57579 | 12339 ft | 414 kts | 0° |
| 2026-05-05 19:53 | 27.19478 | -15.57414 | 11656 ft | 411 kts | 0° |
| 2026-05-05 19:53 | 27.22314 | -15.57243 | 11136 ft | 403 kts | 1° |
| 2026-05-05 19:54 | 27.25048 | -15.57074 | 10994 ft | 384 kts | 1° |
| 2026-05-05 19:54 | 27.27660 | -15.56911 | 10864 ft | 367 kts | 1° |
| 2026-05-05 19:54 | 27.30155 | -15.56760 | 10738 ft | 352 kts | 1° |
| 2026-05-05 19:54 | 27.32547 | -15.56617 | 10611 ft | 337 kts | 1° |
| 2026-05-05 19:55 | 27.34848 | -15.56482 | 10486 ft | 325 kts | 1° |
| 2026-05-05 19:55 | 27.37060 | -15.56353 | 10361 ft | 312 kts | 1° |
| 2026-05-05 19:55 | 27.39203 | -15.56228 | 10124 ft | 305 kts | 1° |
| 2026-05-05 19:55 | 27.41303 | -15.56107 | 10030 ft | 301 kts | 1° |
| 2026-05-05 19:56 | 27.43394 | -15.55989 | 9851 ft | 302 kts | 1° |
| 2026-05-05 19:56 | 27.45516 | -15.55870 | 9326 ft | 305 kts | 1° |
| 2026-05-05 19:56 | 27.47614 | -15.55748 | 9031 ft | 300 kts | 2° |
| 2026-05-05 19:56 | 27.49684 | -15.55624 | 8686 ft | 296 kts | 2° |
| 2026-05-05 19:57 | 27.51697 | -15.55504 | 8558 ft | 283 kts | 2° |
| 2026-05-05 19:57 | 27.52983 | -15.55426 | 8472 ft | 275 kts | 2° |
| 2026-05-05 19:57 | 27.55447 | -15.55019 | 8257 ft | 264 kts | 19° |
| 2026-05-05 19:57 | 27.57150 | -15.54290 | 7945 ft | 260 kts | 20° |
| 2026-05-05 19:58 | 27.58837 | -15.53564 | 7601 ft | 258 kts | 20° |
| 2026-05-05 19:58 | 27.60512 | -15.52847 | 7250 ft | 256 kts | 20° |
| 2026-05-05 19:58 | 27.62171 | -15.52134 | 6895 ft | 254 kts | 20° |
| 2026-05-05 19:58 | 27.63819 | -15.51429 | 6541 ft | 252 kts | 20° |
| 2026-05-05 19:59 | 27.65454 | -15.50729 | 6190 ft | 251 kts | 20° |
| 2026-05-05 19:59 | 27.67080 | -15.50032 | 5837 ft | 249 kts | 20° |
| 2026-05-05 19:59 | 27.68691 | -15.49343 | 5486 ft | 247 kts | 20° |
| 2026-05-05 19:59 | 27.70290 | -15.48661 | 5139 ft | 245 kts | 20° |
| 2026-05-05 20:00 | 27.71876 | -15.47985 | 4786 ft | 243 kts | 20° |
| 2026-05-05 20:00 | 27.73460 | -15.47309 | 4286 ft | 247 kts | 20° |
| 2026-05-05 20:00 | 27.75099 | -15.46608 | 3614 ft | 257 kts | 20° |
| 2026-05-05 20:00 | 27.76765 | -15.45895 | 3138 ft | 259 kts | 21° |
| 2026-05-05 20:01 | 27.78405 | -15.45193 | 3020 ft | 245 kts | 21° |
| 2026-05-05 20:01 | 27.79934 | -15.44525 | 3022 ft | 227 kts | 21° |
| 2026-05-05 20:01 | 27.81369 | -15.43892 | 3022 ft | 219 kts | 21° |
| 2026-05-05 20:01 | 27.82783 | -15.43266 | 3025 ft | 218 kts | 21° |
| 2026-05-05 20:02 | 27.84184 | -15.42616 | 3025 ft | 218 kts | 29° |
| 2026-05-05 20:02 | 27.85254 | -15.41461 | 2793 ft | 215 kts | 62° |
| 2026-05-05 20:02 | 27.85728 | -15.39860 | 2444 ft | 217 kts | 79° |
| 2026-05-05 20:02 | 27.85707 | -15.38716 | 2272 ft | 216 kts | 104° |
| 2026-05-05 20:03 | 27.84948 | -15.37316 | 2150 ft | 208 kts | 140° |
| 2026-05-05 20:03 | 27.83660 | -15.36723 | 2055 ft | 205 kts | 178° |
| 2026-05-05 20:03 | 27.82290 | -15.37123 | 2000 ft | 203 kts | 214° |
| 2026-05-05 20:03 | 27.81332 | -15.38235 | 2006 ft | 201 kts | 244° |
| 2026-05-05 20:04 | 27.81004 | -15.39753 | 2016 ft | 193 kts | 276° |
| 2026-05-05 20:04 | 27.81337 | -15.41125 | 1968 ft | 174 kts | 302° |
| 2026-05-05 20:04 | 27.82096 | -15.42091 | 1891 ft | 158 kts | 327° |
| 2026-05-05 20:04 | 27.83050 | -15.42582 | 1800 ft | 147 kts | 350° |
| 2026-05-05 20:05 | 27.84046 | -15.42622 | 1684 ft | 142 kts | 10° |
| 2026-05-05 20:05 | 27.84963 | -15.42290 | 1556 ft | 137 kts | 21° |
| 2026-05-05 20:05 | 27.85845 | -15.41902 | 1379 ft | 135 kts | 21° |
| 2026-05-05 20:05 | 27.86722 | -15.41516 | 1202 ft | 135 kts | 21° |
| 2026-05-05 20:06 | 27.87585 | -15.41135 | 1022 ft | 135 kts | 21° |
| 2026-05-05 20:06 | 27.88458 | -15.40749 | 840 ft | 135 kts | 20° |
| 2026-05-05 20:06 | 27.89327 | -15.40362 | 660 ft | 135 kts | 22° |
| 2026-05-05 20:06 | 27.90195 | -15.39976 | 474 ft | 134 kts | 21° |
| 2026-05-05 20:07 | 27.91054 | -15.39592 | 285 ft | 131 kts | 21° |
| 2026-05-05 20:07 | 27.91902 | -15.39219 | 120 ft | 131 kts | 20° |
| 2026-05-05 20:07 | 27.92675 | -15.38885 | 63 ft | 99 kts | 22° |
| 2026-05-05 20:07 | 27.93172 | -15.38666 | 61 ft | 62 kts | 21° |
| 2026-05-05 20:08 | 27.93535 | -15.38503 | 57 ft | 49 kts | 21° |
| 2026-05-05 20:08 | 27.93757 | -15.38429 | 56 ft | 27 kts | 9° |
| 2026-05-05 20:08 | 27.93930 | -15.38438 | 62 ft | 20 kts | 351° |
| 2026-05-05 20:08 | 27.94034 | -15.38480 | 71 ft | 15 kts | 307° |
| 2026-05-05 20:09 | 27.94075 | -15.38581 | 73 ft | 12 kts | 281° |
| 2026-05-05 20:09 | 27.94051 | -15.38636 | 83 ft | 5 kts | 211° |
| 2026-05-05 20:09 | 27.94022 | -15.38648 | 84 ft | 5 kts | 201° |
| 2026-05-05 20:09 | 27.93979 | -15.38667 | 86 ft | 9 kts | 201° |
| 2026-05-05 20:10 | 27.93909 | -15.38698 | 87 ft | 13 kts | 201° |
| 2026-05-05 20:10 | 27.93810 | -15.38743 | 84 ft | 15 kts | 202° |
| 2026-05-05 20:10 | 27.93714 | -15.38785 | 85 ft | 14 kts | 201° |
| 2026-05-05 20:10 | 27.93627 | -15.38824 | 85 ft | 13 kts | 201° |
| 2026-05-05 20:11 | 27.93589 | -15.38876 | 83 ft | 8 kts | 284° |
| 2026-05-05 20:11 | 27.93599 | -15.38905 | 86 ft | 2 kts | 291° |
| 2026-05-05 20:11 | 27.93600 | -15.38909 | 84 ft | 1 kts | 291° |
| 2026-05-05 20:11 | 27.93605 | -15.38925 | 86 ft | 2 kts | 290° |
| 2026-05-05 20:12 | 27.93608 | -15.38933 | 85 ft | 0 kts | 290° |